sensor_id;sensor_type;location;lat;lon;timestamp;pressure;altitude;pressure_sealevel;temperature;humidity
41513;BME280;27244;59.940;30.280;2023-02-26T00:00:14;99917.03;;;23.89;29.71
41513;BME280;27244;59.940;30.280;2023-02-26T00:02:42;99916.88;;;23.83;28.92
41513;BME280;27244;59.940;30.280;2023-02-26T00:05:11;99931.09;;;23.80;27.90
41513;BME280;27244;59.940;30.280;2023-02-26T00:07:39;99924.81;;;23.76;28.03
41513;BME280;27244;59.940;30.280;2023-02-26T00:10:10;99928.38;;;23.67;27.31
41513;BME280;27244;59.940;30.280;2023-02-26T00:12:37;99921.50;;;23.68;27.10
41513;BME280;27244;59.940;30.280;2023-02-26T00:15:09;99931.69;;;23.66;26.98
41513;BME280;27244;59.940;30.280;2023-02-26T00:17:41;99926.66;;;23.61;26.78
41513;BME280;27244;59.940;30.280;2023-02-26T00:20:11;99936.03;;;23.58;26.53
41513;BME280;27244;59.940;30.280;2023-02-26T00:22:40;99915.53;;;23.57;26.33
41513;BME280;27244;59.940;30.280;2023-02-26T00:25:08;99917.25;;;23.55;26.08
41513;BME280;27244;59.940;30.280;2023-02-26T00:27:35;99914.56;;;23.51;26.11
41513;BME280;27244;59.940;30.280;2023-02-26T00:30:04;99917.53;;;23.47;26.24
41513;BME280;27244;59.940;30.280;2023-02-26T00:32:35;99916.75;;;23.47;25.99
41513;BME280;27244;59.940;30.280;2023-02-26T00:35:05;99920.00;;;23.45;25.90
41513;BME280;27244;59.940;30.280;2023-02-26T00:37:44;99913.97;;;23.34;25.81
41513;BME280;27244;59.940;30.280;2023-02-26T00:40:20;99925.78;;;23.42;25.43
41513;BME280;27244;59.940;30.280;2023-02-26T00:42:49;99930.28;;;23.39;25.45
41513;BME280;27244;59.940;30.280;2023-02-26T00:45:16;99934.31;;;23.38;25.36
41513;BME280;27244;59.940;30.280;2023-02-26T00:47:48;99933.88;;;23.40;25.79
41513;BME280;27244;59.940;30.280;2023-02-26T00:50:19;99933.22;;;23.36;25.17
41513;BME280;27244;59.940;30.280;2023-02-26T00:53:00;99926.66;;;23.39;25.36
41513;BME280;27244;59.940;30.280;2023-02-26T00:55:29;99929.75;;;23.32;25.12
41513;BME280;27244;59.940;30.280;2023-02-26T00:57:56;99931.94;;;23.28;25.27
41513;BME280;27244;59.940;30.280;2023-02-26T01:00:23;99932.50;;;23.23;25.22
41513;BME280;27244;59.940;30.280;2023-02-26T01:02:51;99933.00;;;23.21;25.51
41513;BME280;27244;59.940;30.280;2023-02-26T01:05:19;99927.50;;;23.18;25.29
41513;BME280;27244;59.940;30.280;2023-02-26T01:07:53;99924.69;;;23.18;25.37
41513;BME280;27244;59.940;30.280;2023-02-26T01:10:30;99921.53;;;23.16;25.46
41513;BME280;27244;59.940;30.280;2023-02-26T01:12:57;99925.63;;;23.15;25.16
41513;BME280;27244;59.940;30.280;2023-02-26T01:15:25;99935.28;;;23.14;25.21
41513;BME280;27244;59.940;30.280;2023-02-26T01:17:56;99951.69;;;23.15;24.94
41513;BME280;27244;59.940;30.280;2023-02-26T01:20:31;99931.56;;;23.17;24.97
41513;BME280;27244;59.940;30.280;2023-02-26T01:23:03;99943.72;;;23.14;24.73
41513;BME280;27244;59.940;30.280;2023-02-26T01:25:38;99934.38;;;23.17;24.90
41513;BME280;27244;59.940;30.280;2023-02-26T01:28:08;99947.34;;;23.14;24.76
41513;BME280;27244;59.940;30.280;2023-02-26T01:30:36;99937.31;;;23.13;24.61
41513;BME280;27244;59.940;30.280;2023-02-26T01:33:09;99942.81;;;23.17;24.88
41513;BME280;27244;59.940;30.280;2023-02-26T01:35:41;99937.63;;;23.15;24.43
41513;BME280;27244;59.940;30.280;2023-02-26T01:38:17;99934.94;;;23.12;24.66
41513;BME280;27244;59.940;30.280;2023-02-26T01:41:11;99935.16;;;23.17;24.59
41513;BME280;27244;59.940;30.280;2023-02-26T01:43:45;99936.53;;;23.13;24.41
41513;BME280;27244;59.940;30.280;2023-02-26T01:46:18;99949.00;;;23.12;24.12
41513;BME280;27244;59.940;30.280;2023-02-26T01:48:50;99940.56;;;23.12;24.40
41513;BME280;27244;59.940;30.280;2023-02-26T01:51:19;99939.59;;;23.05;24.05
41513;BME280;27244;59.940;30.280;2023-02-26T01:54:05;99931.16;;;23.05;24.17
41513;BME280;27244;59.940;30.280;2023-02-26T01:56:41;99937.91;;;23.08;24.16
41513;BME280;27244;59.940;30.280;2023-02-26T01:59:21;99932.41;;;23.04;23.93
41513;BME280;27244;59.940;30.280;2023-02-26T02:01:50;99932.88;;;23.03;23.81
41513;BME280;27244;59.940;30.280;2023-02-26T02:04:18;99930.06;;;23.03;24.01
41513;BME280;27244;59.940;30.280;2023-02-26T02:06:46;99930.84;;;23.03;23.75
41513;BME280;27244;59.940;30.280;2023-02-26T02:09:13;99919.25;;;23.01;23.81
41513;BME280;27244;59.940;30.280;2023-02-26T02:11:55;99921.50;;;23.07;23.78
41513;BME280;27244;59.940;30.280;2023-02-26T02:14:31;99924.44;;;23.03;23.77
41513;BME280;27244;59.940;30.280;2023-02-26T02:17:11;99921.16;;;23.04;23.78
41513;BME280;27244;59.940;30.280;2023-02-26T02:19:58;99923.97;;;23.04;23.75
41513;BME280;27244;59.940;30.280;2023-02-26T02:22:49;99922.41;;;23.03;23.85
41513;BME280;27244;59.940;30.280;2023-02-26T02:25:39;99908.28;;;22.94;23.79
41513;BME280;27244;59.940;30.280;2023-02-26T02:28:26;99933.31;;;23.01;23.64
41513;BME280;27244;59.940;30.280;2023-02-26T02:31:05;99931.66;;;23.04;23.54
41513;BME280;27244;59.940;30.280;2023-02-26T02:33:41;99944.25;;;22.99;23.61
41513;BME280;27244;59.940;30.280;2023-02-26T02:36:12;99936.28;;;22.98;23.59
41513;BME280;27244;59.940;30.280;2023-02-26T02:38:45;99943.16;;;22.97;23.45
41513;BME280;27244;59.940;30.280;2023-02-26T02:41:18;99931.13;;;22.96;23.20
41513;BME280;27244;59.940;30.280;2023-02-26T02:43:48;99926.72;;;22.95;23.20
41513;BME280;27244;59.940;30.280;2023-02-26T02:46:21;99925.16;;;22.94;23.04
41513;BME280;27244;59.940;30.280;2023-02-26T02:48:55;99937.97;;;22.95;23.18
41513;BME280;27244;59.940;30.280;2023-02-26T02:51:26;99927.19;;;22.94;23.28
41513;BME280;27244;59.940;30.280;2023-02-26T02:53:59;99928.75;;;22.95;23.22
41513;BME280;27244;59.940;30.280;2023-02-26T02:56:31;99930.00;;;22.94;23.13
41513;BME280;27244;59.940;30.280;2023-02-26T02:59:04;99922.03;;;22.92;23.18
41513;BME280;27244;59.940;30.280;2023-02-26T03:01:35;99924.38;;;22.94;23.26
41513;BME280;27244;59.940;30.280;2023-02-26T03:04:06;99935.31;;;22.92;23.33
41513;BME280;27244;59.940;30.280;2023-02-26T03:06:35;99932.75;;;23.07;23.57
41513;BME280;27244;59.940;30.280;2023-02-26T03:09:03;99938.91;;;22.92;22.80
41513;BME280;27244;59.940;30.280;2023-02-26T03:11:31;99940.59;;;22.90;22.97
41513;BME280;27244;59.940;30.280;2023-02-26T03:14:00;99949.03;;;22.90;22.99
41513;BME280;27244;59.940;30.280;2023-02-26T03:19:22;99943.25;;;22.93;23.39
41513;BME280;27244;59.940;30.280;2023-02-26T03:22:00;99947.91;;;22.87;23.14
41513;BME280;27244;59.940;30.280;2023-02-26T03:24:50;99947.59;;;22.85;23.20
41513;BME280;27244;59.940;30.280;2023-02-26T03:27:25;99949.94;;;22.87;23.01
41513;BME280;27244;59.940;30.280;2023-02-26T03:29:55;99940.97;;;22.79;23.11
41513;BME280;27244;59.940;30.280;2023-02-26T03:32:28;99936.94;;;22.80;23.16
41513;BME280;27244;59.940;30.280;2023-02-26T03:35:03;99943.22;;;22.84;23.04
41513;BME280;27244;59.940;30.280;2023-02-26T03:37:37;99944.44;;;22.83;22.97
41513;BME280;27244;59.940;30.280;2023-02-26T03:40:10;99958.50;;;22.83;22.92
41513;BME280;27244;59.940;30.280;2023-02-26T03:42:43;99940.09;;;22.82;23.00
41513;BME280;27244;59.940;30.280;2023-02-26T03:45:13;99944.13;;;22.81;22.77
41513;BME280;27244;59.940;30.280;2023-02-26T03:47:45;99948.97;;;22.81;22.91
41513;BME280;27244;59.940;30.280;2023-02-26T03:50:18;99947.38;;;22.80;22.78
41513;BME280;27244;59.940;30.280;2023-02-26T03:53:06;99946.16;;;22.81;22.83
41513;BME280;27244;59.940;30.280;2023-02-26T03:55:49;99951.34;;;22.82;22.69
41513;BME280;27244;59.940;30.280;2023-02-26T03:58:33;99938.16;;;22.79;22.56
41513;BME280;27244;59.940;30.280;2023-02-26T04:01:23;99943.34;;;22.81;22.68
41513;BME280;27244;59.940;30.280;2023-02-26T04:03:56;99931.78;;;22.79;22.68
41513;BME280;27244;59.940;30.280;2023-02-26T04:06:26;99949.75;;;22.81;22.73
41513;BME280;27244;59.940;30.280;2023-02-26T04:08:55;99939.75;;;22.80;22.55
41513;BME280;27244;59.940;30.280;2023-02-26T04:11:23;99936.63;;;22.78;22.59
41513;BME280;27244;59.940;30.280;2023-02-26T04:13:51;99941.91;;;22.76;22.54
41513;BME280;27244;59.940;30.280;2023-02-26T04:16:18;99943.47;;;22.77;22.40
41513;BME280;27244;59.940;30.280;2023-02-26T04:18:45;99937.06;;;22.77;22.47
41513;BME280;27244;59.940;30.280;2023-02-26T04:21:13;99929.53;;;22.74;22.50
41513;BME280;27244;59.940;30.280;2023-02-26T04:23:43;99931.44;;;22.77;22.09
41513;BME280;27244;59.940;30.280;2023-02-26T04:26:10;99936.28;;;22.76;22.43
41513;BME280;27244;59.940;30.280;2023-02-26T04:28:39;99933.16;;;22.74;22.36
41513;BME280;27244;59.940;30.280;2023-02-26T04:31:07;99936.28;;;22.76;22.26
41513;BME280;27244;59.940;30.280;2023-02-26T04:33:35;99935.63;;;22.72;22.18
41513;BME280;27244;59.940;30.280;2023-02-26T04:36:03;99928.44;;;22.71;22.30
41513;BME280;27244;59.940;30.280;2023-02-26T04:38:30;99927.53;;;22.74;22.27
41513;BME280;27244;59.940;30.280;2023-02-26T04:40:58;99923.94;;;22.74;22.29
41513;BME280;27244;59.940;30.280;2023-02-26T04:43:25;99930.78;;;22.73;22.13
41513;BME280;27244;59.940;30.280;2023-02-26T04:46:27;99938.78;;;22.74;22.14
41513;BME280;27244;59.940;30.280;2023-02-26T04:48:54;99935.63;;;22.72;22.18
41513;BME280;27244;59.940;30.280;2023-02-26T04:51:21;99938.44;;;22.72;22.23
41513;BME280;27244;59.940;30.280;2023-02-26T04:53:50;99941.25;;;22.72;22.21
41513;BME280;27244;59.940;30.280;2023-02-26T04:56:19;99941.25;;;22.72;21.98
41513;BME280;27244;59.940;30.280;2023-02-26T04:58:46;99953.28;;;22.73;22.02
41513;BME280;27244;59.940;30.280;2023-02-26T05:01:18;99946.88;;;22.72;22.02
41513;BME280;27244;59.940;30.280;2023-02-26T05:03:46;99951.72;;;22.72;22.09
41513;BME280;27244;59.940;30.280;2023-02-26T05:06:13;99952.63;;;22.69;21.81
41513;BME280;27244;59.940;30.280;2023-02-26T05:08:41;99940.34;;;22.63;22.13
41513;BME280;27244;59.940;30.280;2023-02-26T05:11:08;99934.97;;;22.68;21.74
41513;BME280;27244;59.940;30.280;2023-02-26T05:13:37;99954.53;;;22.72;21.76
41513;BME280;27244;59.940;30.280;2023-02-26T05:16:04;99950.16;;;22.71;21.68
41513;BME280;27244;59.940;30.280;2023-02-26T05:18:32;99947.47;;;22.67;22.03
41513;BME280;27244;59.940;30.280;2023-02-26T05:20:59;99949.91;;;22.65;21.81
41513;BME280;27244;59.940;30.280;2023-02-26T05:23:26;99945.53;;;22.64;21.80
41513;BME280;27244;59.940;30.280;2023-02-26T05:25:54;99937.09;;;22.64;21.94
41513;BME280;27244;59.940;30.280;2023-02-26T05:28:21;99934.28;;;22.64;21.99
41513;BME280;27244;59.940;30.280;2023-02-26T05:30:50;99932.84;;;22.60;21.90
41513;BME280;27244;59.940;30.280;2023-02-26T05:33:17;99932.38;;;22.61;21.84
41513;BME280;27244;59.940;30.280;2023-02-26T05:35:44;99946.44;;;22.61;21.80
41513;BME280;27244;59.940;30.280;2023-02-26T05:38:12;99935.31;;;22.57;21.89
41513;BME280;27244;59.940;30.280;2023-02-26T05:40:39;99953.63;;;22.62;21.73
41513;BME280;27244;59.940;30.280;2023-02-26T05:43:06;99933.63;;;22.60;21.80
41513;BME280;27244;59.940;30.280;2023-02-26T05:45:33;99942.84;;;22.61;21.71
41513;BME280;27244;59.940;30.280;2023-02-26T05:48:02;99937.56;;;22.63;21.67
41513;BME280;27244;59.940;30.280;2023-02-26T05:50:29;99942.38;;;22.62;21.61
41513;BME280;27244;59.940;30.280;2023-02-26T05:52:56;99949.59;;;22.63;21.73
41513;BME280;27244;59.940;30.280;2023-02-26T05:55:23;99940.81;;;22.61;21.60
41513;BME280;27244;59.940;30.280;2023-02-26T05:57:51;99945.53;;;22.64;21.62
41513;BME280;27244;59.940;30.280;2023-02-26T06:00:18;99942.38;;;22.62;21.83
41513;BME280;27244;59.940;30.280;2023-02-26T06:02:45;99957.66;;;22.61;21.58
41513;BME280;27244;59.940;30.280;2023-02-26T06:05:13;99960.47;;;22.61;21.67
41513;BME280;27244;59.940;30.280;2023-02-26T06:07:40;99963.78;;;22.60;21.52
41513;BME280;27244;59.940;30.280;2023-02-26T06:10:11;99967.69;;;22.62;21.67
41513;BME280;27244;59.940;30.280;2023-02-26T06:12:56;99973.09;;;22.69;21.91
41513;BME280;27244;59.940;30.280;2023-02-26T06:15:23;99984.69;;;22.58;21.67
41513;BME280;27244;59.940;30.280;2023-02-26T06:17:50;99983.09;;;22.57;21.74
41513;BME280;27244;59.940;30.280;2023-02-26T06:20:18;99985.28;;;22.53;21.66
41513;BME280;27244;59.940;30.280;2023-02-26T06:22:46;99979.97;;;22.55;21.64
41513;BME280;27244;59.940;30.280;2023-02-26T06:25:12;99990.41;;;22.55;21.51
41513;BME280;27244;59.940;30.280;2023-02-26T06:27:39;99996.03;;;22.55;21.59
41513;BME280;27244;59.940;30.280;2023-02-26T06:30:08;99978.88;;;22.53;21.65
41513;BME280;27244;59.940;30.280;2023-02-26T06:32:35;99990.88;;;22.53;21.56
41513;BME280;27244;59.940;30.280;2023-02-26T06:35:02;99980.34;;;22.45;21.41
41513;BME280;27244;59.940;30.280;2023-02-26T06:37:32;99997.63;;;22.56;21.43
41513;BME280;27244;59.940;30.280;2023-02-26T06:39:59;99990.88;;;22.53;21.51
41513;BME280;27244;59.940;30.280;2023-02-26T06:42:26;99987.28;;;22.53;21.56
41513;BME280;27244;59.940;30.280;2023-02-26T06:44:53;99990.41;;;22.55;21.58
41513;BME280;27244;59.940;30.280;2023-02-26T06:47:21;99995.59;;;22.56;21.39
41513;BME280;27244;59.940;30.280;2023-02-26T06:49:48;99993.09;;;22.58;21.30
41513;BME280;27244;59.940;30.280;2023-02-26T06:52:15;99988.53;;;22.52;21.34
41513;BME280;27244;59.940;30.280;2023-02-26T06:54:43;99995.59;;;22.56;21.43
41513;BME280;27244;59.940;30.280;2023-02-26T06:57:10;99983.56;;;22.56;21.31
41513;BME280;27244;59.940;30.280;2023-02-26T06:59:37;99986.03;;;22.54;21.60
41513;BME280;27244;59.940;30.280;2023-02-26T07:02:04;99992.91;;;22.53;21.46
41513;BME280;27244;59.940;30.280;2023-02-26T07:04:31;99993.34;;;22.51;21.33
41513;BME280;27244;59.940;30.280;2023-02-26T07:06:59;99992.94;;;22.40;21.61
41513;BME280;27244;59.940;30.280;2023-02-26T07:09:26;100011.00;;;22.52;21.53
41513;BME280;27244;59.940;30.280;2023-02-26T07:11:54;99994.72;;;22.47;21.23
41513;BME280;27244;59.940;30.280;2023-02-26T07:14:21;99999.44;;;22.50;21.48
41513;BME280;27244;59.940;30.280;2023-02-26T07:16:48;99985.59;;;22.43;21.41
41513;BME280;27244;59.940;30.280;2023-02-26T07:19:15;99999.88;;;22.48;21.45
41513;BME280;27244;59.940;30.280;2023-02-26T07:21:42;99987.53;;;22.46;21.51
41513;BME280;27244;59.940;30.280;2023-02-26T07:24:09;99997.53;;;22.47;21.32
41513;BME280;27244;59.940;30.280;2023-02-26T07:26:36;99995.50;;;22.47;21.47
41513;BME280;27244;59.940;30.280;2023-02-26T07:29:05;100011.91;;;22.49;21.98
41513;BME280;27244;59.940;30.280;2023-02-26T07:31:32;100009.31;;;22.54;22.79
41513;BME280;27244;59.940;30.280;2023-02-26T07:33:59;100010.19;;;22.64;21.50
41513;BME280;27244;59.940;30.280;2023-02-26T07:36:26;100011.88;;;22.74;21.10
41513;BME280;27244;59.940;30.280;2023-02-26T07:38:53;100015.78;;;22.77;20.80
41513;BME280;27244;59.940;30.280;2023-02-26T07:41:20;100007.91;;;22.84;20.49
41513;BME280;27244;59.940;30.280;2023-02-26T07:43:47;100017.00;;;22.88;20.53
41513;BME280;27244;59.940;30.280;2023-02-26T07:46:16;100013.38;;;22.88;20.40
41513;BME280;27244;59.940;30.280;2023-02-26T07:48:43;100021.69;;;22.91;20.00
41513;BME280;27244;59.940;30.280;2023-02-26T07:51:10;100026.41;;;22.94;19.95
41513;BME280;27244;59.940;30.280;2023-02-26T07:53:37;100017.53;;;22.96;19.98
41513;BME280;27244;59.940;30.280;2023-02-26T07:56:04;100016.28;;;22.97;20.17
41513;BME280;27244;59.940;30.280;2023-02-26T07:58:31;100022.69;;;22.97;20.57
41513;BME280;27244;59.940;30.280;2023-02-26T08:00:58;100021.44;;;22.98;20.88
41513;BME280;27244;59.940;30.280;2023-02-26T08:03:26;100006.72;;;22.94;21.33
41513;BME280;27244;59.940;30.280;2023-02-26T08:05:53;100015.81;;;22.98;21.47
41513;BME280;27244;59.940;30.280;2023-02-26T08:08:21;100021.56;;;22.95;21.55
41513;BME280;27244;59.940;30.280;2023-02-26T08:10:48;100024.13;;;23.02;21.76
41513;BME280;27244;59.940;30.280;2023-02-26T08:13:15;100014.50;;;22.90;21.95
41513;BME280;27244;59.940;30.280;2023-02-26T08:15:42;100028.31;;;22.97;22.25
41513;BME280;27244;59.940;30.280;2023-02-26T08:18:09;100021.44;;;22.98;22.25
41513;BME280;27244;59.940;30.280;2023-02-26T08:20:37;100031.66;;;23.05;22.42
41513;BME280;27244;59.940;30.280;2023-02-26T08:23:04;100028.84;;;23.05;22.55
41513;BME280;27244;59.940;30.280;2023-02-26T08:25:31;100033.53;;;23.08;22.79
41513;BME280;27244;59.940;30.280;2023-02-26T08:27:58;100017.13;;;23.07;22.91
41513;BME280;27244;59.940;30.280;2023-02-26T08:30:26;100034.34;;;23.09;23.10
41513;BME280;27244;59.940;30.280;2023-02-26T08:32:53;100039.03;;;23.12;23.08
41513;BME280;27244;59.940;30.280;2023-02-26T08:35:20;100044.88;;;23.17;23.02
41513;BME280;27244;59.940;30.280;2023-02-26T08:37:48;100036.09;;;23.15;23.21
41513;BME280;27244;59.940;30.280;2023-02-26T08:40:15;100032.72;;;23.20;23.31
41513;BME280;27244;59.940;30.280;2023-02-26T08:42:42;100042.50;;;23.16;23.38
41513;BME280;27244;59.940;30.280;2023-02-26T08:45:10;100029.22;;;23.16;23.52
41513;BME280;27244;59.940;30.280;2023-02-26T08:47:37;100041.41;;;23.13;23.84
41513;BME280;27244;59.940;30.280;2023-02-26T08:50:07;100050.28;;;23.12;24.06
41513;BME280;27244;59.940;30.280;2023-02-26T08:52:34;100049.19;;;23.09;24.16
41513;BME280;27244;59.940;30.280;2023-02-26T08:55:02;100033.53;;;23.08;24.38
41513;BME280;27244;59.940;30.280;2023-02-26T08:57:29;100043.69;;;23.05;24.61
41513;BME280;27244;59.940;30.280;2023-02-26T08:59:56;100043.69;;;23.05;24.56
41513;BME280;27244;59.940;30.280;2023-02-26T09:02:23;100054.94;;;23.05;24.63
41513;BME280;27244;59.940;30.280;2023-02-26T09:04:50;100063.38;;;23.05;24.85
41513;BME280;27244;59.940;30.280;2023-02-26T09:07:17;100048.53;;;23.05;24.89
41513;BME280;27244;59.940;30.280;2023-02-26T09:09:44;100060.56;;;23.05;24.96
41513;BME280;27244;59.940;30.280;2023-02-26T09:12:13;100058.53;;;23.06;25.13
41513;BME280;27244;59.940;30.280;2023-02-26T09:14:41;100053.38;;;23.04;25.15
41513;BME280;27244;59.940;30.280;2023-02-26T09:17:08;100048.34;;;22.99;25.21
41513;BME280;27244;59.940;30.280;2023-02-26T09:19:35;100054.94;;;23.05;25.29
41513;BME280;27244;59.940;30.280;2023-02-26T09:22:03;100063.38;;;23.05;25.34
41513;BME280;27244;59.940;30.280;2023-02-26T09:24:30;100074.75;;;23.02;25.36
41513;BME280;27244;59.940;30.280;2023-02-26T09:26:58;100064.63;;;23.04;25.39
41513;BME280;27244;59.940;30.280;2023-02-26T09:29:26;100060.13;;;23.07;25.41
41513;BME280;27244;59.940;30.280;2023-02-26T09:31:53;100069.00;;;23.05;25.67
41513;BME280;27244;59.940;30.280;2023-02-26T09:34:20;100072.16;;;23.08;25.61
41513;BME280;27244;59.940;30.280;2023-02-26T09:36:47;100073.41;;;23.07;25.66
41513;BME280;27244;59.940;30.280;2023-02-26T09:39:14;100074.97;;;23.08;25.68
41513;BME280;27244;59.940;30.280;2023-02-26T09:41:45;100069.34;;;23.08;25.86
41513;BME280;27244;59.940;30.280;2023-02-26T09:44:18;100072.47;;;23.10;25.86
41513;BME280;27244;59.940;30.280;2023-02-26T09:46:49;100070.88;;;23.21;25.16
41513;BME280;27244;59.940;30.280;2023-02-26T09:49:25;100083.59;;;23.13;25.83
41513;BME280;27244;59.940;30.280;2023-02-26T09:51:57;100088.44;;;23.13;25.95
41513;BME280;27244;59.940;30.280;2023-02-26T09:54:29;100084.53;;;23.10;26.02
41513;BME280;27244;59.940;30.280;2023-02-26T09:56:59;100093.28;;;23.12;26.09
41513;BME280;27244;59.940;30.280;2023-02-26T09:59:29;100101.84;;;23.09;26.16
41513;BME280;27244;59.940;30.280;2023-02-26T10:02:06;100100.81;;;23.15;26.04
41513;BME280;27244;59.940;30.280;2023-02-26T10:04:49;100083.16;;;23.15;26.19
41513;BME280;27244;59.940;30.280;2023-02-26T10:07:26;100094.75;;;23.17;26.33
41513;BME280;27244;59.940;30.280;2023-02-26T10:10:07;100096.88;;;23.13;26.22
41513;BME280;27244;59.940;30.280;2023-02-26T10:12:41;100093.94;;;23.16;26.38
41513;BME280;27244;59.940;30.280;2023-02-26T10:15:12;100101.16;;;23.17;26.51
41513;BME280;27244;59.940;30.280;2023-02-26T10:17:53;100092.28;;;23.19;26.39
41513;BME280;27244;59.940;30.280;2023-02-26T10:20:28;100096.75;;;23.16;26.39
41513;BME280;27244;59.940;30.280;2023-02-26T10:22:59;100114.78;;;23.19;26.51
41513;BME280;27244;59.940;30.280;2023-02-26T10:25:32;100115.09;;;23.21;26.51
41513;BME280;27244;59.940;30.280;2023-02-26T10:28:16;100129.47;;;23.23;26.36
41513;BME280;27244;59.940;30.280;2023-02-26T10:30:57;100137.03;;;23.26;26.41
41513;BME280;27244;59.940;30.280;2023-02-26T10:33:37;100129.03;;;23.24;26.46
41513;BME280;27244;59.940;30.280;2023-02-26T10:36:15;100130.88;;;23.18;26.60
41513;BME280;27244;59.940;30.280;2023-02-26T10:38:48;100123.09;;;23.22;26.71
41513;BME280;27244;59.940;30.280;2023-02-26T10:41:19;100133.88;;;23.24;26.80
41513;BME280;27244;59.940;30.280;2023-02-26T10:43:54;100134.78;;;23.21;26.96
41513;BME280;27244;59.940;30.280;2023-02-26T10:46:28;100138.84;;;23.20;26.90
41513;BME280;27244;59.940;30.280;2023-02-26T10:49:18;100128.25;;;23.24;26.94
41513;BME280;27244;59.940;30.280;2023-02-26T10:51:59;100116.44;;;23.16;26.98
41513;BME280;27244;59.940;30.280;2023-02-26T10:54:34;100128.94;;;23.15;27.10
41513;BME280;27244;59.940;30.280;2023-02-26T10:57:02;100109.31;;;23.02;27.01
41513;BME280;27244;59.940;30.280;2023-02-26T10:59:35;100139.75;;;23.17;26.99
41513;BME280;27244;59.940;30.280;2023-02-26T11:02:02;100133.34;;;23.16;27.13
41513;BME280;27244;59.940;30.280;2023-02-26T11:04:31;100134.13;;;23.17;27.17
41513;BME280;27244;59.940;30.280;2023-02-26T11:07:00;100158.22;;;23.18;27.22
41513;BME280;27244;59.940;30.280;2023-02-26T11:09:32;100144.94;;;23.18;27.33
41513;BME280;27244;59.940;30.280;2023-02-26T11:12:06;100137.38;;;23.15;27.44
41513;BME280;27244;59.940;30.280;2023-02-26T11:14:38;100148.97;;;23.17;27.34
41513;BME280;27244;59.940;30.280;2023-02-26T11:17:10;100150.56;;;23.18;27.43
41513;BME280;27244;59.940;30.280;2023-02-26T11:19:49;100150.22;;;23.16;27.37
41513;BME280;27244;59.940;30.280;2023-02-26T11:22:18;100155.84;;;23.16;27.61
41513;BME280;27244;59.940;30.280;2023-02-26T11:24:47;100188.69;;;23.19;27.30
41513;BME280;27244;59.940;30.280;2023-02-26T11:27:20;100172.16;;;23.21;27.50
41513;BME280;27244;59.940;30.280;2023-02-26T11:29:53;100183.84;;;23.20;27.68
41513;BME280;27244;59.940;30.280;2023-02-26T11:32:21;100197.50;;;23.21;27.85
41513;BME280;27244;59.940;30.280;2023-02-26T11:34:51;100182.94;;;23.23;27.86
41513;BME280;27244;59.940;30.280;2023-02-26T11:37:22;100195.00;;;23.23;27.81
41513;BME280;27244;59.940;30.280;2023-02-26T11:39:55;100197.69;;;23.27;27.83
41513;BME280;27244;59.940;30.280;2023-02-26T11:42:23;100191.72;;;23.25;27.98
41513;BME280;27244;59.940;30.280;2023-02-26T11:44:51;100210.97;;;23.26;28.01
41513;BME280;27244;59.940;30.280;2023-02-26T11:47:21;100211.63;;;23.30;28.19
41513;BME280;27244;59.940;30.280;2023-02-26T11:49:53;100213.22;;;23.31;28.06
41513;BME280;27244;59.940;30.280;2023-02-26T11:52:26;100216.81;;;23.32;28.09
41513;BME280;27244;59.940;30.280;2023-02-26T11:54:59;100205.09;;;23.33;28.32
41513;BME280;27244;59.940;30.280;2023-02-26T11:57:28;100215.13;;;23.34;28.15
41513;BME280;27244;59.940;30.280;2023-02-26T11:59:58;100203.41;;;23.36;28.06
41513;BME280;27244;59.940;30.280;2023-02-26T12:02:30;100220.63;;;23.38;28.37
41513;BME280;27244;59.940;30.280;2023-02-26T12:05:05;100217.25;;;23.30;28.09
41513;BME280;27244;59.940;30.280;2023-02-26T12:07:33;100225.47;;;23.37;28.18
41513;BME280;27244;59.940;30.280;2023-02-26T12:10:00;100215.91;;;23.35;28.30
41513;BME280;27244;59.940;30.280;2023-02-26T12:12:42;100233.78;;;23.41;28.11
41513;BME280;27244;59.940;30.280;2023-02-26T12:15:27;100247.31;;;23.46;28.09
41513;BME280;27244;59.940;30.280;2023-02-26T12:18:11;100245.75;;;23.45;28.06
41513;BME280;27244;59.940;30.280;2023-02-26T12:20:53;100248.91;;;23.47;28.10
41513;BME280;27244;59.940;30.280;2023-02-26T12:23:37;100253.28;;;23.48;28.16
41513;BME280;27244;59.940;30.280;2023-02-26T12:26:23;100249.22;;;23.49;28.12
41513;BME280;27244;59.940;30.280;2023-02-26T12:32:13;100254.53;;;23.47;28.34
41513;BME280;27244;59.940;30.280;2023-02-26T12:34:58;100247.75;;;23.44;28.38
41513;BME280;27244;59.940;30.280;2023-02-26T12:37:40;100262.19;;;23.46;28.58
41513;BME280;27244;59.940;30.280;2023-02-26T12:40:40;100269.72;;;23.49;28.23
41513;BME280;27244;59.940;30.280;2023-02-26T12:43:10;100270.75;;;23.43;28.50
41513;BME280;27244;59.940;30.280;2023-02-26T12:45:46;100278.28;;;23.46;28.52
41513;BME280;27244;59.940;30.280;2023-02-26T12:48:41;100287.84;;;23.48;28.32
41513;BME280;27244;59.940;30.280;2023-02-26T12:51:21;100280.44;;;23.42;28.56
41513;BME280;27244;59.940;30.280;2023-02-26T12:57:26;100307.66;;;23.45;29.11
41513;BME280;27244;59.940;30.280;2023-02-26T13:00:17;100302.38;;;23.47;28.99
41513;BME280;27244;59.940;30.280;2023-02-26T13:03:28;100301.47;;;23.50;28.98
41513;BME280;27244;59.940;30.280;2023-02-26T13:09:05;100307.78;;;23.41;29.43
41513;BME280;27244;59.940;30.280;2023-02-26T13:11:47;100317.47;;;23.40;29.44
41513;BME280;27244;59.940;30.280;2023-02-26T13:14:27;100315.22;;;23.35;29.40
41513;BME280;27244;59.940;30.280;2023-02-26T13:17:03;100315.31;;;23.32;29.63
41513;BME280;27244;59.940;30.280;2023-02-26T13:19:39;100336.13;;;23.34;29.60